createdAt,value
2018-05-10T00:00:15.523Z,17.12
2018-05-10T00:01:15.518Z,17.05
2018-05-10T00:02:15.513Z,17.09
2018-05-10T00:03:15.507Z,17.11
2018-05-10T00:04:15.502Z,17.05
2018-05-10T00:05:15.498Z,17.08
2018-05-10T00:06:15.493Z,17.08
2018-05-10T00:07:15.493Z,17.08
2018-05-10T00:08:15.487Z,17.11
2018-05-10T00:09:15.478Z,17.09
2018-05-10T00:10:15.474Z,17.08
2018-05-10T00:11:15.468Z,17.06
2018-05-10T00:12:15.463Z,17.06
2018-05-10T00:13:15.458Z,17.02
2018-05-10T00:14:15.454Z,17.01
2018-05-10T00:15:15.450Z,16.97
2018-05-10T00:16:15.443Z,16.99
2018-05-10T00:17:15.438Z,16.99
2018-05-10T00:18:15.433Z,16.93
2018-05-10T00:19:15.428Z,17.01
2018-05-10T00:20:15.423Z,17.02
2018-05-10T00:21:15.420Z,16.96
2018-05-10T00:22:15.414Z,16.97
2018-05-10T00:23:15.408Z,17.01
2018-05-10T00:24:15.497Z,16.93
2018-05-10T00:25:15.399Z,17.05
2018-05-10T00:26:15.394Z,16.97
2018-05-10T00:27:15.391Z,16.90
2018-05-10T00:28:15.383Z,16.83
2018-05-10T00:29:15.379Z,16.79
2018-05-10T00:30:15.373Z,16.87
2018-05-10T00:31:15.368Z,16.89
2018-05-10T00:32:15.363Z,16.69
2018-05-10T00:33:15.358Z,16.58
2018-05-10T00:34:15.355Z,16.72
2018-05-10T00:35:15.347Z,16.66
2018-05-10T00:36:15.342Z,16.65
2018-05-10T00:37:15.342Z,16.64
2018-05-10T00:38:15.334Z,16.60
2018-05-10T00:39:15.327Z,16.60
2018-05-10T00:40:15.322Z,16.57
2018-05-10T00:41:15.317Z,16.60
2018-05-10T00:42:15.313Z,16.51
2018-05-10T00:43:15.306Z,16.56
2018-05-10T00:44:15.301Z,16.60
2018-05-10T00:45:15.295Z,16.56
2018-05-10T00:46:15.290Z,16.51
2018-05-10T00:47:15.284Z,16.57
2018-05-10T00:48:15.279Z,16.47
2018-05-10T00:49:15.276Z,16.53
2018-05-10T00:50:15.269Z,16.51
2018-05-10T00:51:15.263Z,16.50
2018-05-10T00:52:15.258Z,16.57
2018-05-10T00:53:15.252Z,16.54
2018-05-10T00:54:15.247Z,16.50
2018-05-10T00:55:15.241Z,16.49
2018-05-10T00:56:15.236Z,16.49
2018-05-10T00:57:15.231Z,16.54
2018-05-10T00:58:15.226Z,16.57
2018-05-10T00:59:15.219Z,16.43
2018-05-10T01:00:15.213Z,16.54
2018-05-10T01:01:15.208Z,16.49
2018-05-10T01:02:15.203Z,16.41
2018-05-10T01:03:15.197Z,16.39
2018-05-10T01:04:15.195Z,16.39
2018-05-10T01:05:15.186Z,16.36
2018-05-10T01:06:15.185Z,16.35
2018-05-10T01:07:15.174Z,16.26
2018-05-10T01:08:15.169Z,16.33
2018-05-10T01:09:15.165Z,16.36
2018-05-10T01:10:15.159Z,16.28
2018-05-10T01:11:15.153Z,16.32
2018-05-10T01:12:15.149Z,16.31
2018-05-10T01:13:15.141Z,16.28
2018-05-10T01:14:15.136Z,16.26
2018-05-10T01:15:15.130Z,16.32
2018-05-10T01:16:15.124Z,16.26
2018-05-10T01:17:15.118Z,16.26
2018-05-10T01:18:15.119Z,16.26
2018-05-10T01:19:15.107Z,16.09
2018-05-10T01:20:15.101Z,16.24
2018-05-10T01:21:15.096Z,16.15
2018-05-10T01:22:15.091Z,16.12
2018-05-10T01:23:15.084Z,16.23
2018-05-10T01:24:15.078Z,16.23
2018-05-10T01:25:15.073Z,16.20
2018-05-10T01:26:15.067Z,16.09
2018-05-10T01:27:15.061Z,16.09
2018-05-10T01:28:15.065Z,16.13
2018-05-10T01:29:15.050Z,16.02
2018-05-10T01:30:15.045Z,16.01
2018-05-10T01:31:15.041Z,16.05
2018-05-10T01:32:15.033Z,15.95
2018-05-10T01:33:15.029Z,15.88
2018-05-10T01:34:15.022Z,15.92
2018-05-10T01:35:15.015Z,15.94
2018-05-10T01:36:15.010Z,15.83
2018-05-10T01:37:15.004Z,15.90
2018-05-10T01:38:14.998Z,15.62
2018-05-10T01:39:14.992Z,15.54
2018-05-10T01:40:14.986Z,15.58
2018-05-10T01:41:14.980Z,15.40
2018-05-10T01:42:14.975Z,15.25
2018-05-10T01:43:14.968Z,15.24
2018-05-10T01:44:14.962Z,15.18
2018-05-10T01:45:14.956Z,15.21
2018-05-10T01:46:14.952Z,15.04
2018-05-10T01:47:14.944Z,15.07
2018-05-10T01:48:14.937Z,14.91
2018-05-10T01:49:14.931Z,14.88
2018-05-10T01:50:14.926Z,14.79
2018-05-10T01:51:14.918Z,14.72
2018-05-10T01:52:14.912Z,14.69
2018-05-10T01:53:14.906Z,14.81
2018-05-10T01:54:14.902Z,14.82
2018-05-10T01:55:14.893Z,14.73
2018-05-10T01:56:14.887Z,14.69
2018-05-10T01:57:14.880Z,14.63
2018-05-10T01:58:14.874Z,14.55
2018-05-10T01:59:14.867Z,14.59
2018-05-10T02:00:14.860Z,14.53
2018-05-10T02:01:14.854Z,14.45
2018-05-10T02:02:14.848Z,14.45
2018-05-10T02:03:14.841Z,14.45
2018-05-10T02:04:14.834Z,14.43
2018-05-10T02:05:14.827Z,14.50
2018-05-10T02:06:14.821Z,14.54
2018-05-10T02:07:14.814Z,14.51
2018-05-10T02:08:14.807Z,14.59
2018-05-10T02:09:14.801Z,14.53
2018-05-10T02:10:14.795Z,14.54
2018-05-10T02:11:14.787Z,14.69
2018-05-10T02:12:14.781Z,14.65
2018-05-10T02:13:14.775Z,14.70
2018-05-10T02:14:14.770Z,14.66
2018-05-10T02:15:14.766Z,14.65
2018-05-10T02:16:14.754Z,14.59
2018-05-10T02:17:14.748Z,14.63
2018-05-10T02:18:14.741Z,14.53
2018-05-10T02:19:14.738Z,14.53
2018-05-10T02:20:14.728Z,14.43
2018-05-10T02:21:14.722Z,14.43
2018-05-10T02:22:14.716Z,14.32
2018-05-10T02:23:14.709Z,14.25
2018-05-10T02:24:14.703Z,14.41
2018-05-10T02:25:14.696Z,14.35
2018-05-10T02:26:14.690Z,14.28
2018-05-10T02:27:14.683Z,14.30
2018-05-10T02:28:14.675Z,14.26
2018-05-10T02:29:14.669Z,14.32
2018-05-10T02:30:14.664Z,14.26
2018-05-10T02:31:14.806Z,14.26
2018-05-10T02:32:14.650Z,14.23
2018-05-10T02:33:14.643Z,14.23
2018-05-10T02:34:14.644Z,14.15
2018-05-10T02:35:14.633Z,14.22
2018-05-10T02:36:14.622Z,14.07
2018-05-10T02:37:14.616Z,14.15
2018-05-10T02:38:14.610Z,14.08
2018-05-10T02:39:14.602Z,14.05
2018-05-10T02:40:14.595Z,14.04
2018-05-10T02:41:14.589Z,14.03
2018-05-10T02:42:14.581Z,14.05
2018-05-10T02:43:14.575Z,14.00
2018-05-10T02:44:14.568Z,14.03
2018-05-10T02:45:14.561Z,14.05
2018-05-10T02:46:14.561Z,13.99
2018-05-10T02:47:14.547Z,14.10
2018-05-10T02:48:14.542Z,14.14
2018-05-10T02:49:14.535Z,14.18
2018-05-10T02:50:14.529Z,14.25
2018-05-10T02:51:14.619Z,14.12
2018-05-10T02:52:14.514Z,14.10
2018-05-10T02:53:14.506Z,14.08
2018-05-10T02:54:14.500Z,14.08
2018-05-10T02:55:14.492Z,14.08
2018-05-10T02:56:14.486Z,14.04
2018-05-10T02:57:14.487Z,14.03
2018-05-10T02:58:14.472Z,14.07
2018-05-10T02:59:14.464Z,14.10
2018-05-10T03:00:14.457Z,14.03
2018-05-10T03:01:14.451Z,14.08
2018-05-10T03:02:14.445Z,14.03
2018-05-10T03:03:14.437Z,14.08
2018-05-10T03:04:14.431Z,14.03
2018-05-10T03:05:14.423Z,13.97
2018-05-10T03:06:14.417Z,14.11
2018-05-10T03:07:14.410Z,14.11
2018-05-10T03:08:14.405Z,14.04
2018-05-10T03:09:14.398Z,14.15
2018-05-10T03:10:14.389Z,14.05
2018-05-10T03:11:14.381Z,14.07
2018-05-10T03:12:14.376Z,14.08
2018-05-10T03:13:14.369Z,14.18
2018-05-10T03:14:14.363Z,14.04
2018-05-10T03:15:14.354Z,14.12
2018-05-10T03:16:14.348Z,14.25
2018-05-10T03:17:14.342Z,14.20
2018-05-10T03:18:14.335Z,14.18
2018-05-10T03:19:14.328Z,14.20
2018-05-10T03:20:14.321Z,14.23
2018-05-10T03:21:14.315Z,14.20
2018-05-10T03:22:14.308Z,14.07
2018-05-10T03:23:14.300Z,14.04
2018-05-10T03:24:14.294Z,14.08
2018-05-10T03:25:14.288Z,14.08
2018-05-10T03:26:14.281Z,14.08
2018-05-10T03:27:14.274Z,14.03
2018-05-10T03:28:14.267Z,14.11
2018-05-10T03:29:14.263Z,14.00
2018-05-10T03:30:14.268Z,14.03
2018-05-10T03:31:14.247Z,14.07
2018-05-10T03:32:14.241Z,14.10
2018-05-10T03:33:14.244Z,14.05
2018-05-10T03:34:14.227Z,13.89
2018-05-10T03:35:14.221Z,13.95
2018-05-10T03:36:14.213Z,13.93
2018-05-10T03:37:14.208Z,13.89
2018-05-10T03:38:14.203Z,13.99
2018-05-10T03:39:14.195Z,13.92
2018-05-10T03:40:14.187Z,13.96
2018-05-10T03:41:14.181Z,14.00
2018-05-10T03:42:14.175Z,14.00
2018-05-10T03:43:14.166Z,13.90
2018-05-10T03:44:14.160Z,13.86
2018-05-10T03:45:14.153Z,13.89
2018-05-10T03:46:14.147Z,13.89
2018-05-10T03:47:14.140Z,13.90
2018-05-10T03:48:14.133Z,13.87
2018-05-10T03:49:14.127Z,13.87
2018-05-10T03:50:14.120Z,13.87
2018-05-10T03:51:14.117Z,13.95
2018-05-10T03:52:14.106Z,13.92
2018-05-10T03:53:14.103Z,13.90
2018-05-10T03:54:14.093Z,13.90
2018-05-10T03:55:14.085Z,13.90
2018-05-10T03:56:14.079Z,13.95
2018-05-10T03:57:14.072Z,13.86
2018-05-10T03:58:14.066Z,13.87
2018-05-10T03:59:14.058Z,13.75
2018-05-10T04:00:14.052Z,13.81
2018-05-10T04:01:14.045Z,13.77
2018-05-10T04:02:14.039Z,13.78
2018-05-10T04:03:14.031Z,13.87
2018-05-10T04:04:14.025Z,13.79
2018-05-10T04:05:14.018Z,13.87
2018-05-10T04:06:14.012Z,13.86
2018-05-10T04:07:14.004Z,13.89
2018-05-10T04:08:14.000Z,13.96
2018-05-10T04:09:13.991Z,13.90
2018-05-10T04:10:13.984Z,13.78
2018-05-10T04:11:13.977Z,13.87
2018-05-10T04:12:13.970Z,13.85
2018-05-10T04:13:13.964Z,13.90
2018-05-10T04:14:13.958Z,14.04
2018-05-10T04:15:13.953Z,13.97
2018-05-10T04:16:13.948Z,13.92
2018-05-10T04:17:13.942Z,13.90
2018-05-10T04:18:13.931Z,13.95
2018-05-10T04:19:13.929Z,13.87
2018-05-10T04:20:13.917Z,13.99
2018-05-10T04:21:13.913Z,13.90
2018-05-10T04:22:13.910Z,13.92
2018-05-10T04:23:13.901Z,13.79
2018-05-10T04:24:13.891Z,13.78
2018-05-10T04:25:13.885Z,13.87
2018-05-10T04:26:13.887Z,13.87
2018-05-10T04:27:13.871Z,13.78
2018-05-10T04:28:13.865Z,13.87
2018-05-10T04:29:13.858Z,13.72
2018-05-10T04:30:13.852Z,13.75
2018-05-10T04:31:13.844Z,13.81
2018-05-10T04:32:13.838Z,13.85
2018-05-10T04:33:13.833Z,13.85
2018-05-10T04:34:13.825Z,13.85
2018-05-10T04:35:13.820Z,13.87
2018-05-10T04:36:13.811Z,13.86
2018-05-10T04:37:13.804Z,13.89
2018-05-10T04:38:13.798Z,13.93
2018-05-10T04:39:13.791Z,13.89
2018-05-10T04:40:13.784Z,13.89
2018-05-10T04:41:13.777Z,13.87
2018-05-10T04:42:13.855Z,13.89
2018-05-10T04:43:13.764Z,13.89
2018-05-10T04:44:13.758Z,13.95
2018-05-10T04:45:13.751Z,13.90
2018-05-10T04:46:13.744Z,13.92
2018-05-10T04:47:13.739Z,13.89
2018-05-10T04:48:13.730Z,13.92
2018-05-10T04:49:13.724Z,13.81
2018-05-10T04:50:13.722Z,13.83
2018-05-10T04:51:13.710Z,13.92
2018-05-10T04:52:13.703Z,13.87
2018-05-10T04:53:13.699Z,13.81
2018-05-10T04:54:13.695Z,13.87
2018-05-10T04:55:13.684Z,13.79
2018-05-10T04:56:13.747Z,13.81
2018-05-10T04:57:13.670Z,13.85
2018-05-10T04:58:13.663Z,13.86
2018-05-10T04:59:13.656Z,13.92
2018-05-10T05:00:13.650Z,13.90
2018-05-10T05:01:13.644Z,13.89
2018-05-10T05:02:13.636Z,13.90
2018-05-10T05:03:13.629Z,13.97
2018-05-10T05:04:13.624Z,13.93
2018-05-10T05:05:13.616Z,13.85
2018-05-10T05:06:13.610Z,13.92
2018-05-10T05:07:13.603Z,13.90
2018-05-10T05:08:13.609Z,13.95
2018-05-10T05:09:13.590Z,13.86
2018-05-10T05:10:13.583Z,13.87
2018-05-10T05:11:13.576Z,13.78
2018-05-10T05:12:13.569Z,13.79
2018-05-10T05:13:13.563Z,13.87
2018-05-10T05:14:13.556Z,13.87
2018-05-10T05:15:13.552Z,13.75
2018-05-10T05:16:13.541Z,13.71
2018-05-10T05:17:13.535Z,13.63
2018-05-10T05:18:13.530Z,13.63
2018-05-10T05:19:13.521Z,13.59
2018-05-10T05:20:13.514Z,13.70
2018-05-10T05:21:13.508Z,13.71
2018-05-10T05:22:13.501Z,13.63
2018-05-10T05:23:13.493Z,13.63
2018-05-10T05:24:13.487Z,13.72
2018-05-10T05:25:13.480Z,13.67
2018-05-10T05:26:13.474Z,13.53
2018-05-10T05:27:13.465Z,13.67
2018-05-10T05:28:13.460Z,13.67
2018-05-10T05:29:13.456Z,13.75
2018-05-10T05:30:13.446Z,13.77
2018-05-10T05:31:13.438Z,13.78
2018-05-10T05:32:13.434Z,13.77
2018-05-10T05:33:13.426Z,13.74
2018-05-10T05:34:13.419Z,13.78
2018-05-10T05:35:13.412Z,13.81
2018-05-10T05:36:13.405Z,13.75
2018-05-10T05:37:13.399Z,13.75
2018-05-10T05:38:13.393Z,13.75
2018-05-10T05:39:13.385Z,13.77
2018-05-10T05:40:13.379Z,13.74
2018-05-10T05:41:13.422Z,13.74
2018-05-10T05:42:13.366Z,13.65
2018-05-10T05:43:13.454Z,13.78
2018-05-10T05:44:13.352Z,13.85
2018-05-10T05:45:13.346Z,13.87
2018-05-10T05:46:13.340Z,13.81
2018-05-10T05:47:13.336Z,13.74
2018-05-10T05:48:13.325Z,13.75
2018-05-10T05:49:13.319Z,13.75
2018-05-10T05:50:13.313Z,13.78
2018-05-10T05:51:13.344Z,13.74
2018-05-10T05:52:13.299Z,13.65
2018-05-10T05:53:13.293Z,13.63
2018-05-10T05:54:13.286Z,13.65
2018-05-10T05:55:13.279Z,13.63
2018-05-10T05:56:13.272Z,13.57
2018-05-10T05:57:13.266Z,13.67
2018-05-10T05:58:13.260Z,13.56
2018-05-10T05:59:13.257Z,13.68
2018-05-10T06:00:13.245Z,13.70
2018-05-10T06:01:13.243Z,13.74
2018-05-10T06:02:13.232Z,13.87
2018-05-10T06:03:13.225Z,13.83
2018-05-10T06:04:13.219Z,13.95
2018-05-10T06:05:13.213Z,13.92
2018-05-10T06:06:13.207Z,13.99
2018-05-10T06:07:13.201Z,14.03
2018-05-10T06:08:13.192Z,13.96
2018-05-10T06:09:13.186Z,14.04
2018-05-10T06:10:13.180Z,14.08
2018-05-10T06:11:13.174Z,14.04
2018-05-10T06:12:13.167Z,14.11
2018-05-10T06:13:13.163Z,14.10
2018-05-10T06:14:13.155Z,14.22
2018-05-10T06:15:13.148Z,14.15
2018-05-10T06:16:13.148Z,14.08
2018-05-10T06:17:13.136Z,13.95
2018-05-10T06:18:13.131Z,14.05
2018-05-10T06:19:13.123Z,13.99
2018-05-10T06:20:13.118Z,14.05
2018-05-10T06:21:13.112Z,14.05
2018-05-10T06:22:13.106Z,13.93
2018-05-10T06:23:13.099Z,13.85
2018-05-10T06:24:13.093Z,13.90
2018-05-10T06:25:13.229Z,13.89
2018-05-10T06:26:13.082Z,13.93
2018-05-10T06:27:13.074Z,13.92
2018-05-10T06:28:13.069Z,13.83
2018-05-10T06:29:13.063Z,13.87
2018-05-10T06:30:13.057Z,13.86
2018-05-10T06:31:13.052Z,13.87
2018-05-10T06:32:13.044Z,13.89
2018-05-10T06:33:13.038Z,13.87
2018-05-10T06:34:13.031Z,13.86
2018-05-10T06:35:13.025Z,13.90
2018-05-10T06:36:13.019Z,13.86
2018-05-10T06:37:13.013Z,13.87
2018-05-10T06:38:13.007Z,13.83
2018-05-10T06:39:13.000Z,13.90
2018-05-10T06:40:12.993Z,13.77
2018-05-10T06:41:12.988Z,13.83
2018-05-10T06:42:12.981Z,13.90
2018-05-10T06:43:12.974Z,13.90
2018-05-10T06:44:12.968Z,13.90
2018-05-10T06:45:12.963Z,13.97
2018-05-10T06:46:12.957Z,14.04
2018-05-10T06:47:13.045Z,14.07
2018-05-10T06:48:12.946Z,14.00
2018-05-10T06:49:12.938Z,14.05
2018-05-10T06:50:12.932Z,14.00
2018-05-10T06:51:12.926Z,13.96
2018-05-10T06:52:12.920Z,13.86
2018-05-10T06:53:12.914Z,13.92
2018-05-10T06:54:12.908Z,13.78
2018-05-10T06:55:12.901Z,13.78
2018-05-10T06:56:12.896Z,13.85
2018-05-10T06:57:12.890Z,13.74
2018-05-10T06:58:12.885Z,13.75
2018-05-10T06:59:12.877Z,13.79
2018-05-10T07:00:12.871Z,13.74
2018-05-10T07:01:12.866Z,13.68
2018-05-10T07:02:12.860Z,13.65
2018-05-10T07:03:12.892Z,13.67
2018-05-10T07:04:12.846Z,13.65
2018-05-10T07:05:12.843Z,13.65
2018-05-10T07:06:12.834Z,13.70
2018-05-10T07:07:12.827Z,13.70
2018-05-10T07:08:12.822Z,13.70
2018-05-10T07:09:12.816Z,13.68
2018-05-10T07:10:12.809Z,13.60
2018-05-10T07:11:12.803Z,13.53
2018-05-10T07:12:12.796Z,13.54
2018-05-10T07:13:12.790Z,13.52
2018-05-10T07:14:12.785Z,13.56
2018-05-10T07:15:12.776Z,13.59
2018-05-10T07:16:12.771Z,13.49
2018-05-10T07:17:12.764Z,13.50
2018-05-10T07:18:12.757Z,13.38
2018-05-10T07:19:12.752Z,13.33
2018-05-10T07:20:12.744Z,13.23
2018-05-10T07:21:12.737Z,13.13
2018-05-10T07:22:12.731Z,13.16
2018-05-10T07:23:12.724Z,13.11
2018-05-10T07:24:12.717Z,13.12
2018-05-10T07:25:12.764Z,12.98
2018-05-10T07:26:12.704Z,13.08
2018-05-10T07:27:12.696Z,13.03
2018-05-10T07:28:12.690Z,13.01
2018-05-10T07:29:12.683Z,12.87
2018-05-10T07:30:12.676Z,12.93
2018-05-10T07:31:12.668Z,12.83
2018-05-10T07:32:12.661Z,12.86
2018-05-10T07:33:12.654Z,12.83
2018-05-10T07:34:12.647Z,12.67
2018-05-10T07:35:12.640Z,12.57
2018-05-10T07:36:12.633Z,12.57
2018-05-10T07:37:12.625Z,12.57
2018-05-10T07:38:12.619Z,12.60
2018-05-10T07:39:12.611Z,12.53
2018-05-10T07:40:12.603Z,12.54
2018-05-10T07:41:12.596Z,12.57
2018-05-10T07:42:12.589Z,12.57
2018-05-10T07:43:12.580Z,12.64
2018-05-10T07:44:12.574Z,12.67
2018-05-10T07:45:12.567Z,12.67
2018-05-10T07:46:12.561Z,12.70
2018-05-10T07:47:12.631Z,12.68
2018-05-10T07:48:12.610Z,12.83
2018-05-10T07:49:12.537Z,12.82
2018-05-10T07:50:12.529Z,12.82
2018-05-10T07:51:12.522Z,12.86
2018-05-10T07:52:12.514Z,12.85
2018-05-10T07:53:12.601Z,12.90
2018-05-10T07:54:12.500Z,12.86
2018-05-10T07:55:12.492Z,12.90
2018-05-10T07:56:12.485Z,12.86
2018-05-10T07:57:12.478Z,12.86
2018-05-10T07:58:12.471Z,12.91
2018-05-10T07:59:12.463Z,12.85
2018-05-10T08:00:12.456Z,12.87
2018-05-10T08:01:12.449Z,12.85
2018-05-10T08:02:12.484Z,12.79
2018-05-10T08:03:12.434Z,12.98
2018-05-10T08:04:12.427Z,12.90
2018-05-10T08:05:12.420Z,12.95
2018-05-10T08:06:12.413Z,12.83
2018-05-10T08:07:12.405Z,12.98
2018-05-10T08:08:12.398Z,12.91
2018-05-10T08:09:12.391Z,12.80
2018-05-10T08:10:12.417Z,12.87
2018-05-10T08:11:12.380Z,12.83
2018-05-10T08:12:12.369Z,12.93
2018-05-10T08:13:12.362Z,12.87
2018-05-10T08:14:12.356Z,12.82
2018-05-10T08:15:12.348Z,12.78
2018-05-10T08:16:12.340Z,12.79
2018-05-10T08:17:12.374Z,12.83
2018-05-10T08:18:12.327Z,12.73
2018-05-10T08:19:12.319Z,12.75
2018-05-10T08:20:12.313Z,12.83
2018-05-10T08:21:12.305Z,12.75
2018-05-10T08:22:12.298Z,12.86
2018-05-10T08:23:12.290Z,12.80
2018-05-10T08:24:12.377Z,12.83
2018-05-10T08:25:12.275Z,12.87
2018-05-10T08:26:12.269Z,12.85
2018-05-10T08:27:12.261Z,12.98
2018-05-10T08:28:12.254Z,13.08
2018-05-10T08:29:12.247Z,13.12
2018-05-10T08:30:12.398Z,13.15
2018-05-10T08:31:12.233Z,13.25
2018-05-10T08:32:12.227Z,13.27
2018-05-10T08:33:12.219Z,13.33
2018-05-10T08:34:12.213Z,13.44
2018-05-10T08:35:12.206Z,13.49
2018-05-10T08:36:12.199Z,13.52
2018-05-10T08:37:12.193Z,13.60
2018-05-10T08:38:12.187Z,13.49
2018-05-10T08:39:12.180Z,13.52
2018-05-10T08:40:12.173Z,13.30
2018-05-10T08:41:12.167Z,13.37
2018-05-10T08:42:12.161Z,13.50
2018-05-10T08:43:12.154Z,13.63
2018-05-10T08:44:12.150Z,13.71
2018-05-10T08:45:12.142Z,13.78
2018-05-10T08:46:12.136Z,13.85
2018-05-10T08:47:12.132Z,13.77
2018-05-10T08:48:12.122Z,13.87
2018-05-10T08:49:12.117Z,13.81
2018-05-10T08:50:12.113Z,13.87
2018-05-10T08:51:12.105Z,13.95
2018-05-10T08:52:12.099Z,13.97
2018-05-10T08:53:12.094Z,13.97
2018-05-10T08:54:12.089Z,14.03
2018-05-10T08:55:12.088Z,13.93
2018-05-10T08:56:12.076Z,13.97
2018-05-10T08:57:12.075Z,13.95
2018-05-10T08:58:12.066Z,13.90
2018-05-10T08:59:12.057Z,13.87
2018-05-10T09:00:12.052Z,13.77
2018-05-10T09:01:12.046Z,13.79
2018-05-10T09:02:12.192Z,13.75
2018-05-10T09:03:12.034Z,13.81
2018-05-10T09:04:12.028Z,13.75
2018-05-10T09:05:12.027Z,13.78
2018-05-10T09:06:12.017Z,13.92
2018-05-10T09:07:12.010Z,14.00
2018-05-10T09:08:12.005Z,14.10
2018-05-10T09:09:11.999Z,13.96
2018-05-10T09:10:11.993Z,13.86
2018-05-10T09:11:11.987Z,14.00
2018-05-10T09:12:11.981Z,14.03
2018-05-10T09:13:11.976Z,14.25
2018-05-10T09:14:11.970Z,14.23
2018-05-10T09:15:11.966Z,14.23
2018-05-10T09:16:11.959Z,14.32
2018-05-10T09:17:11.963Z,14.25
2018-05-10T09:18:11.948Z,14.32
2018-05-10T09:19:11.942Z,14.37
2018-05-10T09:20:11.954Z,14.37
2018-05-10T09:21:11.931Z,14.40
2018-05-10T09:22:11.927Z,14.40
2018-05-10T09:23:11.921Z,14.55
2018-05-10T09:24:11.916Z,14.59
2018-05-10T09:25:11.911Z,14.60
2018-05-10T09:26:11.907Z,14.45
2018-05-10T09:27:11.901Z,14.48
2018-05-10T09:28:11.896Z,14.60
2018-05-10T09:29:11.892Z,14.62
2018-05-10T09:30:11.888Z,14.53
2018-05-10T09:31:11.886Z,14.55
2018-05-10T09:32:11.877Z,14.47
2018-05-10T09:33:11.877Z,14.45
2018-05-10T09:34:11.868Z,14.33
2018-05-10T09:35:11.864Z,14.28
2018-05-10T09:36:11.858Z,14.29
2018-05-10T09:37:11.852Z,14.29
2018-05-10T09:38:11.847Z,14.23
2018-05-10T09:39:11.922Z,14.26
2018-05-10T09:40:11.836Z,14.18
2018-05-10T09:41:11.831Z,14.15
2018-05-10T09:42:11.826Z,14.18
2018-05-10T09:43:11.820Z,14.08
2018-05-10T09:44:11.816Z,14.04
2018-05-10T09:45:11.808Z,14.05
2018-05-10T09:46:11.813Z,14.10
2018-05-10T09:47:11.797Z,14.11
2018-05-10T09:48:11.791Z,13.89
2018-05-10T09:49:11.787Z,13.97
2018-05-10T09:50:11.780Z,13.78
2018-05-10T09:51:11.774Z,13.74
2018-05-10T09:52:11.768Z,13.68
2018-05-10T09:53:11.762Z,13.63
2018-05-10T09:54:11.757Z,13.65
2018-05-10T09:55:11.750Z,13.77
2018-05-10T09:56:11.745Z,13.70
2018-05-10T09:57:11.738Z,13.78
2018-05-10T09:58:11.739Z,13.65
2018-05-10T09:59:11.725Z,13.68
2018-05-10T10:00:11.719Z,13.60
2018-05-10T10:01:11.715Z,13.67
2018-05-10T10:02:11.707Z,13.63
2018-05-10T10:03:11.700Z,13.62
2018-05-10T10:04:11.695Z,13.70
2018-05-10T10:05:11.687Z,13.60
2018-05-10T10:06:11.743Z,13.70
2018-05-10T10:07:11.673Z,13.67
2018-05-10T10:08:11.667Z,13.78
2018-05-10T10:09:11.664Z,13.77
2018-05-10T10:10:11.654Z,13.67
2018-05-10T10:11:11.647Z,13.71
2018-05-10T10:12:11.640Z,13.81
2018-05-10T10:13:11.634Z,13.78
2018-05-10T10:14:11.631Z,13.68
2018-05-10T10:15:11.621Z,13.67
2018-05-10T10:16:11.615Z,13.63
2018-05-10T10:17:11.609Z,13.70
2018-05-10T10:18:11.602Z,13.71
2018-05-10T10:19:11.594Z,13.72
2018-05-10T10:20:11.588Z,13.67
2018-05-10T10:21:11.582Z,13.67
2018-05-10T10:22:11.579Z,13.60
2018-05-10T10:23:11.567Z,13.63
2018-05-10T10:24:11.562Z,13.67
2018-05-10T10:25:11.643Z,13.65
2018-05-10T10:26:11.548Z,13.78
2018-05-10T10:27:11.542Z,13.78
2018-05-10T10:28:11.535Z,13.75
2018-05-10T10:29:11.529Z,13.83
2018-05-10T10:30:11.522Z,13.85
2018-05-10T10:31:11.515Z,13.75
2018-05-10T10:32:11.509Z,13.86
2018-05-10T10:33:11.503Z,13.77
2018-05-10T10:34:11.496Z,13.77
2018-05-10T10:35:11.489Z,13.75
2018-05-10T10:36:11.482Z,13.87
2018-05-10T10:37:11.477Z,13.78
2018-05-10T10:38:11.562Z,13.89
2018-05-10T10:39:11.464Z,13.99
2018-05-10T10:40:11.506Z,14.05
2018-05-10T10:41:11.451Z,14.25
2018-05-10T10:42:11.445Z,14.45
2018-05-10T10:43:11.438Z,14.40
2018-05-10T10:44:11.437Z,14.54
2018-05-10T10:45:11.427Z,14.63
2018-05-10T10:46:11.422Z,14.79
2018-05-10T10:47:11.415Z,14.82
2018-05-10T10:48:11.413Z,14.99
2018-05-10T10:49:11.405Z,15.18
2018-05-10T10:50:11.400Z,15.36
2018-05-10T10:51:11.394Z,15.65
2018-05-10T10:52:11.391Z,15.65
2018-05-10T10:53:11.389Z,15.61
2018-05-10T10:54:11.383Z,15.68
2018-05-10T10:55:11.378Z,15.90
2018-05-10T10:56:11.375Z,16.00
2018-05-10T10:57:11.372Z,15.97
2018-05-10T10:58:11.369Z,15.91
2018-05-10T10:59:11.364Z,15.76
2018-05-10T11:00:11.362Z,15.65
2018-05-10T11:01:11.359Z,15.65
2018-05-10T11:02:11.366Z,15.54
2018-05-10T11:03:11.351Z,15.44
2018-05-10T11:04:11.350Z,15.42
2018-05-10T11:05:11.344Z,15.42
2018-05-10T11:06:11.341Z,15.36
2018-05-10T11:07:11.337Z,15.37
2018-05-10T11:08:11.333Z,15.28
2018-05-10T11:09:11.397Z,15.24
2018-05-10T11:10:11.326Z,15.24
2018-05-10T11:11:11.321Z,15.14
2018-05-10T11:12:11.316Z,15.15
2018-05-10T11:13:11.313Z,15.21
2018-05-10T11:14:11.309Z,15.24
2018-05-10T11:15:11.304Z,15.21
2018-05-10T11:16:11.300Z,15.27
2018-05-10T11:17:11.296Z,15.24
2018-05-10T11:18:11.291Z,15.39
2018-05-10T11:19:11.286Z,15.43
2018-05-10T11:20:11.282Z,15.58
2018-05-10T11:21:11.278Z,15.55
2018-05-10T11:22:11.275Z,15.58
2018-05-10T11:23:11.269Z,15.64
2018-05-10T11:24:11.265Z,15.64
2018-05-10T11:25:11.261Z,15.58
2018-05-10T11:26:11.257Z,15.58
2018-05-10T11:27:11.252Z,15.65
2018-05-10T11:28:11.247Z,15.61
2018-05-10T11:29:11.244Z,15.52
2018-05-10T11:30:11.241Z,15.43
2018-05-10T11:31:11.233Z,15.40
2018-05-10T11:32:11.231Z,15.40
2018-05-10T11:33:11.314Z,15.58
2018-05-10T11:34:11.221Z,15.58
2018-05-10T11:35:11.215Z,15.64
2018-05-10T11:36:11.244Z,15.68
2018-05-10T11:37:11.207Z,15.98
2018-05-10T11:38:11.203Z,16.17
2018-05-10T11:39:11.240Z,16.29
2018-05-10T11:40:11.194Z,16.47
2018-05-10T11:41:11.192Z,16.60
2018-05-10T11:42:11.189Z,16.60
2018-05-10T11:43:11.183Z,16.61
2018-05-10T11:44:11.180Z,16.51
2018-05-10T11:45:11.177Z,16.49
2018-05-10T11:46:11.175Z,16.51
2018-05-10T11:47:11.174Z,16.35
2018-05-10T11:48:11.167Z,16.32
2018-05-10T11:49:11.167Z,16.23
2018-05-10T11:50:11.160Z,16.12
2018-05-10T11:51:11.157Z,16.10
2018-05-10T11:52:11.152Z,16.09
2018-05-10T11:53:11.152Z,16.13
2018-05-10T11:54:11.145Z,16.01
2018-05-10T11:55:11.143Z,16.08
2018-05-10T11:56:11.137Z,16.08
2018-05-10T11:57:11.135Z,15.98
2018-05-10T11:58:11.130Z,15.82
2018-05-10T11:59:11.125Z,15.86
2018-05-10T12:00:11.121Z,15.82
2018-05-10T12:01:11.117Z,15.94
2018-05-10T12:02:11.113Z,16.00
2018-05-10T12:03:11.108Z,16.13
2018-05-10T12:04:11.105Z,16.08
2018-05-10T12:05:11.101Z,16.02
2018-05-10T12:06:11.135Z,16.02
2018-05-10T12:07:11.091Z,15.95
2018-05-10T12:08:11.087Z,16.01
2018-05-10T12:09:11.083Z,15.98
2018-05-10T12:12:15.224Z,15.97
2018-05-10T12:13:15.222Z,15.86
2018-05-10T12:14:15.214Z,16.01
2018-05-10T12:15:15.210Z,16.12
2018-05-10T12:16:15.205Z,16.16
2018-05-10T12:17:15.199Z,16.23
2018-05-10T12:18:15.195Z,16.35
2018-05-10T12:19:15.235Z,16.36
2018-05-10T12:20:15.187Z,16.68
2018-05-10T12:21:15.182Z,16.86
2018-05-10T12:22:15.178Z,17.11
2018-05-10T12:23:15.174Z,17.24
2018-05-10T12:24:15.171Z,17.38
2018-05-10T12:25:15.172Z,17.52
2018-05-10T12:26:15.164Z,17.49
2018-05-10T12:27:15.168Z,17.49
2018-05-10T12:28:15.163Z,17.64
2018-05-10T12:29:15.156Z,17.71
2018-05-10T12:30:15.154Z,17.92
2018-05-10T12:31:15.152Z,17.97
2018-05-10T12:32:15.155Z,18.26
2018-05-10T12:33:15.148Z,18.37
2018-05-10T12:34:15.147Z,18.65
2018-05-10T12:35:15.148Z,18.81
2018-05-10T12:36:15.147Z,19.09
2018-05-10T12:37:15.146Z,19.18
2018-05-10T12:38:15.147Z,19.18
2018-05-10T12:39:15.152Z,19.16
2018-05-10T12:40:15.148Z,19.15
2018-05-10T12:41:15.148Z,19.16
2018-05-10T12:42:15.148Z,19.00
2018-05-10T12:43:15.149Z,18.81
2018-05-10T12:44:15.150Z,18.70
2018-05-10T12:45:15.149Z,18.43
2018-05-10T12:46:15.150Z,18.44
2018-05-10T12:47:15.156Z,18.28
2018-05-10T12:48:15.150Z,18.23
2018-05-10T12:49:15.152Z,18.05
2018-05-10T12:50:15.153Z,17.98
2018-05-10T12:51:15.148Z,18.11
2018-05-10T12:52:15.148Z,18.20
2018-05-10T12:53:15.147Z,18.26
2018-05-10T12:54:15.148Z,18.07